Accueil
METAR-TAF:

METAR-TAF

Aéroports :

Londres Biggin Hill, Angleterre

Aérodrome de Londres Biggin Hill

latitude: 51-19N, longitude: 000-02E, altitude: 183 m

Observation

Le bulletin a été fait il y a 16 minutes, à 13:20 UTC
Vent 16 kt de ouest avec des rafales jusqu'à 26 kt, variant entre ouest/sud-ouest et nord-ouest
Température 12°C
Humidité 54%
Pression 1014 hPa
Visibilité 10 km ou plus
Nuages fragmentés à une hauteur de 3800 ft

METAR: EGKB 221320Z 28016G26KT 240V310 9999 BKN038 12/03 Q1014

Heure: 14:36 (13:36 UTC)

Prévision

Le bulletin a été fait il y a 2 heures et 38 minutes, à 10:58 UTC
Prévision valable du 22 à 12 UTC au 22 à 21 UTC
Vent 14 kt de ouest
Visibilité 10 km ou plus
Nuages épars à une hauteur de 2500 ft
Temporairement
du 22 à 12 UTC au 22 à 15 UTC
Vent 17 kt de ouest avec des rafales jusqu'à 27 kt

TAF: EGKB 221058Z 2212/2221 27014KT 9999 SCT025 TEMPO 2212/2215 28017G27KT

Observations et prévisions météorologiques de plus de 4000 aéroports (messages METAR et TAF).

Les stations disponibles sont représentées par des disques jaunes et rouges sur la carte.

Passer la souris dessus pour voir le nom de la station.

Cliquer dessus pour voir les observations et prévisions météorologiques.

Pour changer de carte: cliquez sur les boutons verts avec une croix noire pour zoomer, sur le bouton vert avec un tiret pour effectuer un zoom arrière, ou sur les flèches vertes pour les cartes adjacentes.


METAR-TAF: